sensor_id;sensor_type;location;lat;lon;timestamp;temperature;humidity
38514;DHT22;24282;48.400;10.808;2022-07-23T00:01:34;23.90;56.50
38514;DHT22;24282;48.400;10.808;2022-07-23T00:04:00;23.90;55.60
38514;DHT22;24282;48.400;10.808;2022-07-23T00:06:26;24.00;55.60
38514;DHT22;24282;48.400;10.808;2022-07-23T00:08:52;24.00;55.10
38514;DHT22;24282;48.400;10.808;2022-07-23T00:11:18;24.10;54.30
38514;DHT22;24282;48.400;10.808;2022-07-23T00:13:44;24.10;54.20
38514;DHT22;24282;48.400;10.808;2022-07-23T00:16:09;24.10;53.90
38514;DHT22;24282;48.400;10.808;2022-07-23T00:18:35;24.20;53.80
38514;DHT22;24282;48.400;10.808;2022-07-23T00:21:01;24.20;54.10
38514;DHT22;24282;48.400;10.808;2022-07-23T00:23:27;24.20;53.90
38514;DHT22;24282;48.400;10.808;2022-07-23T00:25:54;24.30;53.00
38514;DHT22;24282;48.400;10.808;2022-07-23T00:28:20;24.40;51.90
38514;DHT22;24282;48.400;10.808;2022-07-23T00:30:46;24.30;51.10
38514;DHT22;24282;48.400;10.808;2022-07-23T00:33:13;24.40;49.40
38514;DHT22;24282;48.400;10.808;2022-07-23T00:35:40;24.40;49.70
38514;DHT22;24282;48.400;10.808;2022-07-23T00:38:08;24.50;48.80
38514;DHT22;24282;48.400;10.808;2022-07-23T00:40:35;24.70;48.70
38514;DHT22;24282;48.400;10.808;2022-07-23T00:43:02;24.60;48.50
38514;DHT22;24282;48.400;10.808;2022-07-23T00:45:29;24.60;51.40
38514;DHT22;24282;48.400;10.808;2022-07-23T00:47:55;24.50;54.60
38514;DHT22;24282;48.400;10.808;2022-07-23T00:50:21;24.20;57.80
38514;DHT22;24282;48.400;10.808;2022-07-23T00:52:47;23.90;58.40
38514;DHT22;24282;48.400;10.808;2022-07-23T00:55:13;23.60;62.90
38514;DHT22;24282;48.400;10.808;2022-07-23T00:57:40;23.30;63.00
38514;DHT22;24282;48.400;10.808;2022-07-23T01:00:09;23.00;66.30
38514;DHT22;24282;48.400;10.808;2022-07-23T01:02:37;22.80;68.40
38514;DHT22;24282;48.400;10.808;2022-07-23T01:05:03;22.70;68.20
38514;DHT22;24282;48.400;10.808;2022-07-23T01:07:29;22.40;70.30
38514;DHT22;24282;48.400;10.808;2022-07-23T01:09:55;22.40;71.50
38514;DHT22;24282;48.400;10.808;2022-07-23T01:12:21;22.30;70.50
38514;DHT22;24282;48.400;10.808;2022-07-23T01:14:54;22.20;71.60
38514;DHT22;24282;48.400;10.808;2022-07-23T01:17:21;22.10;71.60
38514;DHT22;24282;48.400;10.808;2022-07-23T01:19:47;22.00;72.00
38514;DHT22;24282;48.400;10.808;2022-07-23T01:22:13;21.90;71.30
38514;DHT22;24282;48.400;10.808;2022-07-23T01:24:40;21.90;72.50
38514;DHT22;24282;48.400;10.808;2022-07-23T01:27:06;21.80;73.70
38514;DHT22;24282;48.400;10.808;2022-07-23T01:29:35;21.80;74.70
38514;DHT22;24282;48.400;10.808;2022-07-23T01:32:06;21.80;75.00
38514;DHT22;24282;48.400;10.808;2022-07-23T01:34:32;21.70;74.80
38514;DHT22;24282;48.400;10.808;2022-07-23T01:36:58;21.60;75.00
38514;DHT22;24282;48.400;10.808;2022-07-23T01:39:23;21.60;75.50
38514;DHT22;24282;48.400;10.808;2022-07-23T01:41:51;21.60;76.00
38514;DHT22;24282;48.400;10.808;2022-07-23T01:44:17;21.50;75.90
38514;DHT22;24282;48.400;10.808;2022-07-23T01:46:43;21.50;75.90
38514;DHT22;24282;48.400;10.808;2022-07-23T01:49:09;21.40;75.80
38514;DHT22;24282;48.400;10.808;2022-07-23T01:51:48;21.40;76.20
38514;DHT22;24282;48.400;10.808;2022-07-23T01:54:32;21.40;76.70
38514;DHT22;24282;48.400;10.808;2022-07-23T01:56:59;21.40;76.90
38514;DHT22;24282;48.400;10.808;2022-07-23T01:59:26;21.30;77.40
38514;DHT22;24282;48.400;10.808;2022-07-23T02:01:52;21.30;76.80
38514;DHT22;24282;48.400;10.808;2022-07-23T02:04:22;21.30;77.40
38514;DHT22;24282;48.400;10.808;2022-07-23T02:06:49;21.30;77.70
38514;DHT22;24282;48.400;10.808;2022-07-23T02:09:15;21.20;77.50
38514;DHT22;24282;48.400;10.808;2022-07-23T02:11:41;21.20;76.80
38514;DHT22;24282;48.400;10.808;2022-07-23T02:14:07;21.10;77.60
38514;DHT22;24282;48.400;10.808;2022-07-23T02:16:33;21.10;78.10
38514;DHT22;24282;48.400;10.808;2022-07-23T02:19:02;21.10;78.60
38514;DHT22;24282;48.400;10.808;2022-07-23T02:21:28;21.00;78.60
38514;DHT22;24282;48.400;10.808;2022-07-23T02:23:54;21.00;78.80
38514;DHT22;24282;48.400;10.808;2022-07-23T02:26:20;21.00;79.00
38514;DHT22;24282;48.400;10.808;2022-07-23T02:28:48;20.90;79.30
38514;DHT22;24282;48.400;10.808;2022-07-23T02:31:13;20.90;79.50
38514;DHT22;24282;48.400;10.808;2022-07-23T02:33:39;20.90;78.90
38514;DHT22;24282;48.400;10.808;2022-07-23T02:36:05;20.90;78.60
38514;DHT22;24282;48.400;10.808;2022-07-23T02:38:31;20.90;78.30
38514;DHT22;24282;48.400;10.808;2022-07-23T02:40:57;20.90;78.30
38514;DHT22;24282;48.400;10.808;2022-07-23T02:43:23;20.90;78.80
38514;DHT22;24282;48.400;10.808;2022-07-23T02:45:49;20.90;78.80
38514;DHT22;24282;48.400;10.808;2022-07-23T02:48:15;20.90;79.10
38514;DHT22;24282;48.400;10.808;2022-07-23T02:50:43;20.90;79.20
38514;DHT22;24282;48.400;10.808;2022-07-23T02:53:12;20.90;78.60
38514;DHT22;24282;48.400;10.808;2022-07-23T02:55:39;20.80;78.60
38514;DHT22;24282;48.400;10.808;2022-07-23T02:58:04;20.80;79.00
38514;DHT22;24282;48.400;10.808;2022-07-23T03:00:30;20.80;78.70
38514;DHT22;24282;48.400;10.808;2022-07-23T03:02:56;20.80;79.10
38514;DHT22;24282;48.400;10.808;2022-07-23T03:05:22;20.80;79.40
38514;DHT22;24282;48.400;10.808;2022-07-23T03:07:48;20.80;79.70
38514;DHT22;24282;48.400;10.808;2022-07-23T03:10:14;20.80;80.00
38514;DHT22;24282;48.400;10.808;2022-07-23T03:12:40;20.70;80.00
38514;DHT22;24282;48.400;10.808;2022-07-23T03:15:06;20.70;80.00
38514;DHT22;24282;48.400;10.808;2022-07-23T03:17:32;20.70;80.00
38514;DHT22;24282;48.400;10.808;2022-07-23T03:19:58;20.60;80.10
38514;DHT22;24282;48.400;10.808;2022-07-23T03:22:23;20.60;80.20
38514;DHT22;24282;48.400;10.808;2022-07-23T03:24:49;20.60;80.10
38514;DHT22;24282;48.400;10.808;2022-07-23T03:27:29;20.60;80.30
38514;DHT22;24282;48.400;10.808;2022-07-23T03:29:57;20.50;80.30
38514;DHT22;24282;48.400;10.808;2022-07-23T03:32:24;20.50;79.90
38514;DHT22;24282;48.400;10.808;2022-07-23T03:34:51;20.50;79.30
38514;DHT22;24282;48.400;10.808;2022-07-23T03:37:17;20.50;79.60
38514;DHT22;24282;48.400;10.808;2022-07-23T03:39:44;20.50;79.40
38514;DHT22;24282;48.400;10.808;2022-07-23T03:42:10;20.40;78.80
38514;DHT22;24282;48.400;10.808;2022-07-23T03:44:36;20.40;79.20
38514;DHT22;24282;48.400;10.808;2022-07-23T03:47:04;20.40;79.60
38514;DHT22;24282;48.400;10.808;2022-07-23T03:49:30;20.40;79.90
38514;DHT22;24282;48.400;10.808;2022-07-23T03:51:56;20.40;80.10
38514;DHT22;24282;48.400;10.808;2022-07-23T03:54:23;20.40;80.10
38514;DHT22;24282;48.400;10.808;2022-07-23T03:56:48;20.40;80.10
38514;DHT22;24282;48.400;10.808;2022-07-23T03:59:14;20.30;79.90
38514;DHT22;24282;48.400;10.808;2022-07-23T04:01:40;20.40;79.60
38514;DHT22;24282;48.400;10.808;2022-07-23T04:04:06;20.40;79.60
38514;DHT22;24282;48.400;10.808;2022-07-23T04:06:35;20.30;79.90
38514;DHT22;24282;48.400;10.808;2022-07-23T04:09:02;20.30;80.20
38514;DHT22;24282;48.400;10.808;2022-07-23T04:11:29;20.30;80.10
38514;DHT22;24282;48.400;10.808;2022-07-23T04:13:55;20.40;79.70
38514;DHT22;24282;48.400;10.808;2022-07-23T04:16:21;20.30;80.10
38514;DHT22;24282;48.400;10.808;2022-07-23T04:18:47;20.40;80.20
38514;DHT22;24282;48.400;10.808;2022-07-23T04:21:19;20.30;80.30
38514;DHT22;24282;48.400;10.808;2022-07-23T04:23:45;20.30;80.50
38514;DHT22;24282;48.400;10.808;2022-07-23T04:26:13;20.30;80.50
38514;DHT22;24282;48.400;10.808;2022-07-23T04:28:39;20.30;80.40
38514;DHT22;24282;48.400;10.808;2022-07-23T04:31:05;20.20;80.50
38514;DHT22;24282;48.400;10.808;2022-07-23T04:33:32;20.20;80.70
38514;DHT22;24282;48.400;10.808;2022-07-23T04:36:01;20.20;80.80
38514;DHT22;24282;48.400;10.808;2022-07-23T04:38:27;20.10;80.90
38514;DHT22;24282;48.400;10.808;2022-07-23T04:40:58;20.20;80.90
38514;DHT22;24282;48.400;10.808;2022-07-23T04:43:25;20.20;81.10
38514;DHT22;24282;48.400;10.808;2022-07-23T04:45:51;20.20;81.10
38514;DHT22;24282;48.400;10.808;2022-07-23T04:48:17;20.20;80.80
38514;DHT22;24282;48.400;10.808;2022-07-23T04:50:43;20.10;80.90
38514;DHT22;24282;48.400;10.808;2022-07-23T04:53:15;20.20;80.90
38514;DHT22;24282;48.400;10.808;2022-07-23T04:55:43;20.20;80.60
38514;DHT22;24282;48.400;10.808;2022-07-23T04:58:09;20.10;80.80
38514;DHT22;24282;48.400;10.808;2022-07-23T05:00:35;20.10;80.70
38514;DHT22;24282;48.400;10.808;2022-07-23T05:03:01;20.10;80.90
38514;DHT22;24282;48.400;10.808;2022-07-23T05:05:27;20.20;81.30
38514;DHT22;24282;48.400;10.808;2022-07-23T05:07:58;20.10;81.60
38514;DHT22;24282;48.400;10.808;2022-07-23T05:10:26;20.20;81.90
38514;DHT22;24282;48.400;10.808;2022-07-23T05:12:52;20.20;82.00
38514;DHT22;24282;48.400;10.808;2022-07-23T05:15:18;20.30;81.80
38514;DHT22;24282;48.400;10.808;2022-07-23T05:17:44;20.30;81.10
38514;DHT22;24282;48.400;10.808;2022-07-23T05:20:15;20.30;80.80
38514;DHT22;24282;48.400;10.808;2022-07-23T05:22:42;20.30;81.00
38514;DHT22;24282;48.400;10.808;2022-07-23T05:25:08;20.30;81.40
38514;DHT22;24282;48.400;10.808;2022-07-23T05:27:33;20.40;80.30
38514;DHT22;24282;48.400;10.808;2022-07-23T05:29:59;20.40;80.50
38514;DHT22;24282;48.400;10.808;2022-07-23T05:32:25;20.40;80.90
38514;DHT22;24282;48.400;10.808;2022-07-23T05:35:02;20.30;81.40
38514;DHT22;24282;48.400;10.808;2022-07-23T05:37:28;20.30;81.50
38514;DHT22;24282;48.400;10.808;2022-07-23T05:39:53;20.30;81.00
38514;DHT22;24282;48.400;10.808;2022-07-23T05:42:19;20.30;80.90
38514;DHT22;24282;48.400;10.808;2022-07-23T05:44:45;20.40;80.80
38514;DHT22;24282;48.400;10.808;2022-07-23T05:47:11;20.40;80.70
38514;DHT22;24282;48.400;10.808;2022-07-23T05:49:38;20.40;80.00
38514;DHT22;24282;48.400;10.808;2022-07-23T05:52:20;20.40;80.30
38514;DHT22;24282;48.400;10.808;2022-07-23T05:55:11;20.40;80.60
38514;DHT22;24282;48.400;10.808;2022-07-23T05:57:39;20.40;80.70
38514;DHT22;24282;48.400;10.808;2022-07-23T06:00:07;20.40;81.00
38514;DHT22;24282;48.400;10.808;2022-07-23T06:02:39;20.40;80.70
38514;DHT22;24282;48.400;10.808;2022-07-23T06:05:06;20.40;80.20
38514;DHT22;24282;48.400;10.808;2022-07-23T06:07:34;20.40;81.00
38514;DHT22;24282;48.400;10.808;2022-07-23T06:10:00;20.40;80.80
38514;DHT22;24282;48.400;10.808;2022-07-23T06:12:26;20.40;80.20
38514;DHT22;24282;48.400;10.808;2022-07-23T06:14:51;20.40;79.60
38514;DHT22;24282;48.400;10.808;2022-07-23T06:17:18;20.40;79.70
38514;DHT22;24282;48.400;10.808;2022-07-23T06:19:44;20.40;79.70
38514;DHT22;24282;48.400;10.808;2022-07-23T06:22:10;20.50;79.50
38514;DHT22;24282;48.400;10.808;2022-07-23T06:24:36;20.40;79.60
38514;DHT22;24282;48.400;10.808;2022-07-23T06:27:03;20.40;79.20
38514;DHT22;24282;48.400;10.808;2022-07-23T06:29:29;20.40;79.40
38514;DHT22;24282;48.400;10.808;2022-07-23T06:31:55;20.40;79.00
38514;DHT22;24282;48.400;10.808;2022-07-23T06:34:21;20.50;78.90
38514;DHT22;24282;48.400;10.808;2022-07-23T06:36:46;20.40;78.80
38514;DHT22;24282;48.400;10.808;2022-07-23T06:39:12;20.50;79.40
38514;DHT22;24282;48.400;10.808;2022-07-23T06:41:38;20.50;79.50
38514;DHT22;24282;48.400;10.808;2022-07-23T06:44:04;20.50;80.10
38514;DHT22;24282;48.400;10.808;2022-07-23T06:46:32;20.50;79.00
38514;DHT22;24282;48.400;10.808;2022-07-23T06:49:00;20.50;78.70
38514;DHT22;24282;48.400;10.808;2022-07-23T06:51:28;20.60;79.20
38514;DHT22;24282;48.400;10.808;2022-07-23T06:53:54;20.60;79.80
38514;DHT22;24282;48.400;10.808;2022-07-23T06:56:22;20.60;80.10
38514;DHT22;24282;48.400;10.808;2022-07-23T06:58:48;20.60;80.10
38514;DHT22;24282;48.400;10.808;2022-07-23T07:01:14;20.70;80.10
38514;DHT22;24282;48.400;10.808;2022-07-23T07:03:40;20.80;79.40
38514;DHT22;24282;48.400;10.808;2022-07-23T07:06:06;20.80;79.10
38514;DHT22;24282;48.400;10.808;2022-07-23T07:08:32;20.80;79.60
38514;DHT22;24282;48.400;10.808;2022-07-23T07:10:58;20.90;79.80
38514;DHT22;24282;48.400;10.808;2022-07-23T07:13:23;20.90;79.80
38514;DHT22;24282;48.400;10.808;2022-07-23T07:15:49;20.90;79.60
38514;DHT22;24282;48.400;10.808;2022-07-23T07:18:15;20.90;78.30
38514;DHT22;24282;48.400;10.808;2022-07-23T07:20:41;20.90;78.90
38514;DHT22;24282;48.400;10.808;2022-07-23T07:23:06;20.90;78.40
38514;DHT22;24282;48.400;10.808;2022-07-23T07:25:32;20.90;79.20
38514;DHT22;24282;48.400;10.808;2022-07-23T07:27:58;21.00;79.10
38514;DHT22;24282;48.400;10.808;2022-07-23T07:30:24;21.00;78.20
38514;DHT22;24282;48.400;10.808;2022-07-23T07:32:49;21.00;78.30
38514;DHT22;24282;48.400;10.808;2022-07-23T07:35:15;21.00;78.50
38514;DHT22;24282;48.400;10.808;2022-07-23T07:37:41;21.10;78.90
38514;DHT22;24282;48.400;10.808;2022-07-23T07:40:07;21.10;79.20
38514;DHT22;24282;48.400;10.808;2022-07-23T07:42:34;21.20;78.70
38514;DHT22;24282;48.400;10.808;2022-07-23T07:45:00;21.20;77.40
38514;DHT22;24282;48.400;10.808;2022-07-23T07:47:25;21.20;77.50
38514;DHT22;24282;48.400;10.808;2022-07-23T07:49:51;21.30;77.80
38514;DHT22;24282;48.400;10.808;2022-07-23T07:52:17;21.30;77.80
38514;DHT22;24282;48.400;10.808;2022-07-23T07:54:43;21.30;78.00
38514;DHT22;24282;48.400;10.808;2022-07-23T07:57:09;21.30;76.90
38514;DHT22;24282;48.400;10.808;2022-07-23T07:59:35;21.40;78.20
38514;DHT22;24282;48.400;10.808;2022-07-23T08:02:01;21.40;77.60
38514;DHT22;24282;48.400;10.808;2022-07-23T08:04:27;21.30;78.00
38514;DHT22;24282;48.400;10.808;2022-07-23T08:06:53;21.30;78.50
38514;DHT22;24282;48.400;10.808;2022-07-23T08:09:18;21.30;78.10
38514;DHT22;24282;48.400;10.808;2022-07-23T08:11:44;21.30;77.90
38514;DHT22;24282;48.400;10.808;2022-07-23T08:14:10;21.30;77.70
38514;DHT22;24282;48.400;10.808;2022-07-23T08:16:36;21.60;76.50
38514;DHT22;24282;48.400;10.808;2022-07-23T08:19:02;21.70;76.40
38514;DHT22;24282;48.400;10.808;2022-07-23T08:21:28;21.80;76.30
38514;DHT22;24282;48.400;10.808;2022-07-23T08:23:54;21.90;75.80
38514;DHT22;24282;48.400;10.808;2022-07-23T08:26:19;22.00;75.30
38514;DHT22;24282;48.400;10.808;2022-07-23T08:28:45;22.40;73.90
38514;DHT22;24282;48.400;10.808;2022-07-23T08:31:11;22.50;72.90
38514;DHT22;24282;48.400;10.808;2022-07-23T08:33:37;22.70;72.40
38514;DHT22;24282;48.400;10.808;2022-07-23T08:36:04;22.90;71.70
38514;DHT22;24282;48.400;10.808;2022-07-23T08:38:30;23.00;71.80
38514;DHT22;24282;48.400;10.808;2022-07-23T08:40:56;23.30;71.80
38514;DHT22;24282;48.400;10.808;2022-07-23T08:43:31;23.50;71.10
38514;DHT22;24282;48.400;10.808;2022-07-23T08:45:59;23.70;70.70
38514;DHT22;24282;48.400;10.808;2022-07-23T08:48:26;23.90;70.50
38514;DHT22;24282;48.400;10.808;2022-07-23T08:50:58;24.10;69.60
38514;DHT22;24282;48.400;10.808;2022-07-23T08:53:25;24.30;69.00
38514;DHT22;24282;48.400;10.808;2022-07-23T08:55:56;24.40;68.20
38514;DHT22;24282;48.400;10.808;2022-07-23T08:58:23;24.60;68.90
38514;DHT22;24282;48.400;10.808;2022-07-23T09:00:49;24.70;69.20
38514;DHT22;24282;48.400;10.808;2022-07-23T09:03:21;24.90;65.10
38514;DHT22;24282;48.400;10.808;2022-07-23T09:05:48;25.00;64.30
38514;DHT22;24282;48.400;10.808;2022-07-23T09:08:16;25.10;64.50
38514;DHT22;24282;48.400;10.808;2022-07-23T09:11:01;25.30;64.70
38514;DHT22;24282;48.400;10.808;2022-07-23T09:15:54;25.60;61.80
38514;DHT22;24282;48.400;10.808;2022-07-23T09:18:38;25.80;62.20
38514;DHT22;24282;48.400;10.808;2022-07-23T09:26:20;25.90;61.70
38514;DHT22;24282;48.400;10.808;2022-07-23T09:28:51;25.90;61.10
38514;DHT22;24282;48.400;10.808;2022-07-23T09:31:18;26.10;61.70
38514;DHT22;24282;48.400;10.808;2022-07-23T09:33:44;26.30;61.00
38514;DHT22;24282;48.400;10.808;2022-07-23T09:36:10;26.30;59.30
38514;DHT22;24282;48.400;10.808;2022-07-23T09:38:48;26.50;59.30
38514;DHT22;24282;48.400;10.808;2022-07-23T09:41:15;26.60;57.30
38514;DHT22;24282;48.400;10.808;2022-07-23T09:43:41;26.70;56.50
38514;DHT22;24282;48.400;10.808;2022-07-23T09:46:27;26.70;57.10
38514;DHT22;24282;48.400;10.808;2022-07-23T09:48:56;26.70;57.80
38514;DHT22;24282;48.400;10.808;2022-07-23T09:51:22;26.80;56.90
38514;DHT22;24282;48.400;10.808;2022-07-23T09:53:48;26.80;57.20
38514;DHT22;24282;48.400;10.808;2022-07-23T09:56:14;26.90;56.50
38514;DHT22;24282;48.400;10.808;2022-07-23T09:58:41;26.90;56.80
38514;DHT22;24282;48.400;10.808;2022-07-23T10:01:14;27.00;57.60
38514;DHT22;24282;48.400;10.808;2022-07-23T10:03:41;27.10;56.50
38514;DHT22;24282;48.400;10.808;2022-07-23T10:06:45;27.10;56.50
38514;DHT22;24282;48.400;10.808;2022-07-23T10:09:33;27.30;57.00
38514;DHT22;24282;48.400;10.808;2022-07-23T10:12:31;27.30;55.30
38514;DHT22;24282;48.400;10.808;2022-07-23T10:15:20;27.40;54.70
38514;DHT22;24282;48.400;10.808;2022-07-23T10:17:46;27.60;53.90
38514;DHT22;24282;48.400;10.808;2022-07-23T10:20:11;27.60;53.80
38514;DHT22;24282;48.400;10.808;2022-07-23T10:22:42;27.70;53.50
38514;DHT22;24282;48.400;10.808;2022-07-23T10:35:56;27.50;55.00
38514;DHT22;24282;48.400;10.808;2022-07-23T10:41:14;27.50;54.00
38514;DHT22;24282;48.400;10.808;2022-07-23T10:43:40;27.40;53.80
38514;DHT22;24282;48.400;10.808;2022-07-23T10:46:36;27.30;54.30
38514;DHT22;24282;48.400;10.808;2022-07-23T10:49:29;27.30;54.70
38514;DHT22;24282;48.400;10.808;2022-07-23T10:57:28;28.00;54.40
38514;DHT22;24282;48.400;10.808;2022-07-23T11:02:33;28.20;52.30
38514;DHT22;24282;48.400;10.808;2022-07-23T11:05:04;28.10;52.20
38514;DHT22;24282;48.400;10.808;2022-07-23T11:07:30;28.10;52.60
38514;DHT22;24282;48.400;10.808;2022-07-23T11:09:56;27.90;53.70
38514;DHT22;24282;48.400;10.808;2022-07-23T11:17:32;28.00;53.10
38514;DHT22;24282;48.400;10.808;2022-07-23T11:25:34;28.20;52.00
38514;DHT22;24282;48.400;10.808;2022-07-23T11:28:14;28.30;52.00
38514;DHT22;24282;48.400;10.808;2022-07-23T11:30:45;28.30;51.60
38514;DHT22;24282;48.400;10.808;2022-07-23T11:35:41;28.10;53.40
38514;DHT22;24282;48.400;10.808;2022-07-23T11:38:20;28.30;53.20
38514;DHT22;24282;48.400;10.808;2022-07-23T11:40:52;28.60;52.60
38514;DHT22;24282;48.400;10.808;2022-07-23T11:43:18;28.90;52.30
38514;DHT22;24282;48.400;10.808;2022-07-23T11:45:46;29.10;51.50
38514;DHT22;24282;48.400;10.808;2022-07-23T11:48:22;29.20;49.80
38514;DHT22;24282;48.400;10.808;2022-07-23T11:50:48;29.10;50.20
38514;DHT22;24282;48.400;10.808;2022-07-23T11:53:22;29.20;49.80
38514;DHT22;24282;48.400;10.808;2022-07-23T11:55:48;29.30;48.80
38514;DHT22;24282;48.400;10.808;2022-07-23T11:58:14;29.30;49.20
38514;DHT22;24282;48.400;10.808;2022-07-23T12:00:41;29.30;49.30
38514;DHT22;24282;48.400;10.808;2022-07-23T12:03:07;29.50;48.40
38514;DHT22;24282;48.400;10.808;2022-07-23T12:05:37;29.40;49.20
38514;DHT22;24282;48.400;10.808;2022-07-23T12:08:05;29.30;49.10
38514;DHT22;24282;48.400;10.808;2022-07-23T12:10:42;29.20;48.30
38514;DHT22;24282;48.400;10.808;2022-07-23T12:13:17;29.30;48.70
38514;DHT22;24282;48.400;10.808;2022-07-23T12:15:44;29.30;48.70
38514;DHT22;24282;48.400;10.808;2022-07-23T12:18:13;29.10;49.70
38514;DHT22;24282;48.400;10.808;2022-07-23T12:20:44;28.90;49.80
38514;DHT22;24282;48.400;10.808;2022-07-23T12:23:12;28.60;50.80
38514;DHT22;24282;48.400;10.808;2022-07-23T12:25:51;28.40;52.40
38514;DHT22;24282;48.400;10.808;2022-07-23T12:28:26;28.30;52.90
38514;DHT22;24282;48.400;10.808;2022-07-23T12:30:53;28.20;53.10
38514;DHT22;24282;48.400;10.808;2022-07-23T12:33:29;28.20;53.50
38514;DHT22;24282;48.400;10.808;2022-07-23T12:35:57;28.30;52.90
38514;DHT22;24282;48.400;10.808;2022-07-23T12:38:24;28.30;52.80
38514;DHT22;24282;48.400;10.808;2022-07-23T12:40:56;28.30;54.00
38514;DHT22;24282;48.400;10.808;2022-07-23T12:43:26;28.30;54.00
38514;DHT22;24282;48.400;10.808;2022-07-23T12:48:39;28.00;54.60
38514;DHT22;24282;48.400;10.808;2022-07-23T12:53:46;27.90;53.90
38514;DHT22;24282;48.400;10.808;2022-07-23T12:56:26;27.90;53.90
38514;DHT22;24282;48.400;10.808;2022-07-23T13:06:37;27.50;55.20
38514;DHT22;24282;48.400;10.808;2022-07-23T13:09:04;27.40;55.30
38514;DHT22;24282;48.400;10.808;2022-07-23T13:11:30;27.30;55.50
38514;DHT22;24282;48.400;10.808;2022-07-23T13:13:57;27.30;56.20
38514;DHT22;24282;48.400;10.808;2022-07-23T13:16:23;27.20;56.80
38514;DHT22;24282;48.400;10.808;2022-07-23T13:18:48;27.20;57.40
38514;DHT22;24282;48.400;10.808;2022-07-23T13:21:14;27.10;57.90
38514;DHT22;24282;48.400;10.808;2022-07-23T13:23:41;27.10;58.60
38514;DHT22;24282;48.400;10.808;2022-07-23T13:26:07;27.00;58.90
38514;DHT22;24282;48.400;10.808;2022-07-23T13:28:33;26.90;59.10
38514;DHT22;24282;48.400;10.808;2022-07-23T13:30:59;26.90;59.10
38514;DHT22;24282;48.400;10.808;2022-07-23T13:33:25;26.90;59.10
38514;DHT22;24282;48.400;10.808;2022-07-23T13:35:52;26.80;59.20
38514;DHT22;24282;48.400;10.808;2022-07-23T13:38:20;26.80;59.00
38514;DHT22;24282;48.400;10.808;2022-07-23T13:40:48;26.80;59.60
38514;DHT22;24282;48.400;10.808;2022-07-23T13:43:16;26.80;59.70
38514;DHT22;24282;48.400;10.808;2022-07-23T13:45:42;26.80;60.10
38514;DHT22;24282;48.400;10.808;2022-07-23T13:48:10;26.80;58.90
38514;DHT22;24282;48.400;10.808;2022-07-23T13:50:40;26.80;59.50
38514;DHT22;24282;48.400;10.808;2022-07-23T13:53:09;26.80;60.60
38514;DHT22;24282;48.400;10.808;2022-07-23T13:55:36;26.80;62.40
38514;DHT22;24282;48.400;10.808;2022-07-23T13:58:04;26.80;64.20
38514;DHT22;24282;48.400;10.808;2022-07-23T14:00:31;26.50;64.60
38514;DHT22;24282;48.400;10.808;2022-07-23T14:02:58;26.50;65.20
38514;DHT22;24282;48.400;10.808;2022-07-23T14:05:25;26.60;64.30
38514;DHT22;24282;48.400;10.808;2022-07-23T14:07:51;26.70;63.90
38514;DHT22;24282;48.400;10.808;2022-07-23T14:10:19;27.00;63.50
38514;DHT22;24282;48.400;10.808;2022-07-23T14:12:46;27.30;60.40
38514;DHT22;24282;48.400;10.808;2022-07-23T14:15:13;27.60;60.50
38514;DHT22;24282;48.400;10.808;2022-07-23T14:17:41;27.80;60.10
38514;DHT22;24282;48.400;10.808;2022-07-23T14:20:09;28.10;59.00
38514;DHT22;24282;48.400;10.808;2022-07-23T14:22:36;28.30;57.70
38514;DHT22;24282;48.400;10.808;2022-07-23T14:25:03;28.40;55.10
38514;DHT22;24282;48.400;10.808;2022-07-23T14:27:29;28.60;55.20
38514;DHT22;24282;48.400;10.808;2022-07-23T14:29:55;28.80;51.80
38514;DHT22;24282;48.400;10.808;2022-07-23T14:32:21;28.90;52.20
38514;DHT22;24282;48.400;10.808;2022-07-23T14:34:47;29.10;51.90
38514;DHT22;24282;48.400;10.808;2022-07-23T14:37:13;29.30;50.60
38514;DHT22;24282;48.400;10.808;2022-07-23T14:39:40;29.30;49.60
38514;DHT22;24282;48.400;10.808;2022-07-23T14:42:07;29.40;49.90
38514;DHT22;24282;48.400;10.808;2022-07-23T14:44:34;29.50;49.60
38514;DHT22;24282;48.400;10.808;2022-07-23T14:47:00;29.20;50.90
38514;DHT22;24282;48.400;10.808;2022-07-23T14:49:27;29.00;51.00
38514;DHT22;24282;48.400;10.808;2022-07-23T14:51:53;28.70;51.60
38514;DHT22;24282;48.400;10.808;2022-07-23T14:54:18;28.30;52.40
38514;DHT22;24282;48.400;10.808;2022-07-23T14:56:46;28.00;53.20
38514;DHT22;24282;48.400;10.808;2022-07-23T14:59:12;27.80;53.80
38514;DHT22;24282;48.400;10.808;2022-07-23T15:01:38;27.60;54.70
38514;DHT22;24282;48.400;10.808;2022-07-23T15:04:05;27.40;55.50
38514;DHT22;24282;48.400;10.808;2022-07-23T15:06:32;27.20;56.50
38514;DHT22;24282;48.400;10.808;2022-07-23T15:08:58;27.10;57.70
38514;DHT22;24282;48.400;10.808;2022-07-23T15:11:27;27.00;58.00
38514;DHT22;24282;48.400;10.808;2022-07-23T15:13:54;26.90;58.30
38514;DHT22;24282;48.400;10.808;2022-07-23T15:16:20;26.90;58.40
38514;DHT22;24282;48.400;10.808;2022-07-23T15:18:46;26.80;59.10
38514;DHT22;24282;48.400;10.808;2022-07-23T15:21:12;26.80;59.70
38514;DHT22;24282;48.400;10.808;2022-07-23T15:23:38;26.80;59.10
38514;DHT22;24282;48.400;10.808;2022-07-23T15:26:06;26.70;59.50
38514;DHT22;24282;48.400;10.808;2022-07-23T15:28:32;26.70;59.30
38514;DHT22;24282;48.400;10.808;2022-07-23T15:30:57;26.60;59.90
38514;DHT22;24282;48.400;10.808;2022-07-23T15:33:23;26.60;61.00
38514;DHT22;24282;48.400;10.808;2022-07-23T15:35:49;26.50;60.90
38514;DHT22;24282;48.400;10.808;2022-07-23T15:38:15;26.40;61.10
38514;DHT22;24282;48.400;10.808;2022-07-23T15:40:41;26.40;61.10
38514;DHT22;24282;48.400;10.808;2022-07-23T15:43:07;26.40;61.50
38514;DHT22;24282;48.400;10.808;2022-07-23T15:45:32;26.40;61.20
38514;DHT22;24282;48.400;10.808;2022-07-23T15:47:58;26.60;61.30
38514;DHT22;24282;48.400;10.808;2022-07-23T15:50:24;27.00;60.40
38514;DHT22;24282;48.400;10.808;2022-07-23T15:52:50;27.30;59.40
38514;DHT22;24282;48.400;10.808;2022-07-23T15:55:16;27.50;58.70
38514;DHT22;24282;48.400;10.808;2022-07-23T15:57:42;27.80;56.90
38514;DHT22;24282;48.400;10.808;2022-07-23T16:00:08;28.10;55.10
38514;DHT22;24282;48.400;10.808;2022-07-23T16:02:34;28.30;54.90
38514;DHT22;24282;48.400;10.808;2022-07-23T16:05:01;28.60;53.90
38514;DHT22;24282;48.400;10.808;2022-07-23T16:07:26;28.60;53.00
38514;DHT22;24282;48.400;10.808;2022-07-23T16:09:52;28.60;53.90
38514;DHT22;24282;48.400;10.808;2022-07-23T16:12:18;28.60;53.90
38514;DHT22;24282;48.400;10.808;2022-07-23T16:14:44;28.60;54.60